Terminal Aerodrome Forecast
Issued by NWS Memphis, TN

Home | Current Version | Previous Version | Text Only | Print | Product List | Glossary On
Versions: 1 2 3 4 5 6 7 8 9 10 11 12 13 14 15 16 17 18 19 20
000
FTUS44 KMEG 311122
TAFMKL
TAF
KMKL 311122Z 3112/0112 VRB04KT P6SM VCSH BKN060
     FM311300 16004KT 5SM SHRA SCT020 BKN050 OVC250
     FM311600 19007KT 5SM SHRA VCTS SCT020CB BKN050
     FM010200 VRB02KT P6SM VCSH BKN250
     FM010900 00000KT 3SM BR BCFG SCT010 BKN200=

USA.gov is the U.S. government's official web portal to all federal, state and local government web resources and services.